Time;durP1;ratioP1;P1;durP2;ratioP2;P2;SDS_P1;SDS_P2;PMS_P1;PMS_P2;Temp;Humidity;BMP_temperature;BMP_pressure;BME280_temperature;BME280_humidity;BME280_pressure;Samples;Min_cycle;Max_cycle;Signal;HPM_P1;HPM_P2
2022/10/31 00:01:33;;;;;;;22.42;9.88;;;10.80;99.90;;;;;;7609478;19;20025;-70
2022/10/31 00:04:06;;;;;;;24.55;9.25;;;10.70;99.90;;;;;;7602923;19;20609;-71
2022/10/31 00:06:38;;;;;;;24.92;10.32;;;10.80;99.90;;;;;;7595597;19;20047;-71
2022/10/31 00:09:10;;;;;;;21.30;8.15;;;10.80;99.90;;;;;;7599961;19;20022;-70
2022/10/31 00:11:42;;;;;;;19.63;8.57;;;10.60;99.90;;;;;;7606291;19;20111;-70
2022/10/31 00:14:14;;;;;;;18.88;9.38;;;10.60;99.90;;;;;;7606401;19;20010;-70
2022/10/31 00:16:46;;;;;;;22.58;8.80;;;10.60;99.90;;;;;;7613213;19;20011;-70
2022/10/31 00:19:18;;;;;;;23.67;9.95;;;10.60;99.90;;;;;;7603291;19;20946;-70
2022/10/31 00:21:52;;;;;;;19.90;8.98;;;10.60;99.90;;;;;;7609157;19;20101;-70
2022/10/31 00:24:24;;;;;;;20.15;8.40;;;10.70;99.90;;;;;;7587369;19;20014;-70
2022/10/31 00:26:56;;;;;;;17.65;8.70;;;10.80;99.90;;;;;;7593134;19;20045;-70
2022/10/31 00:29:28;;;;;;;18.08;8.45;;;10.80;99.90;;;;;;7580059;19;20110;-69
2022/10/31 00:32:00;;;;;;;18.08;7.80;;;10.90;99.90;;;;;;7588686;19;20026;-70
2022/10/31 00:34:32;;;;;;;20.35;8.05;;;10.90;99.90;;;;;;7593169;19;20010;-70
2022/10/31 00:37:04;;;;;;;22.75;8.25;;;10.90;99.90;;;;;;7582064;19;20312;-70
2022/10/31 00:39:36;;;;;;;18.55;8.15;;;10.80;99.90;;;;;;7604810;19;20015;-70
2022/10/31 00:42:08;;;;;;;18.42;7.82;;;10.70;99.90;;;;;;7595607;19;21055;-70
2022/10/31 00:44:40;;;;;;;17.05;8.07;;;10.60;99.90;;;;;;7592300;19;20022;-70
2022/10/31 00:47:12;;;;;;;18.30;7.25;;;10.70;99.90;;;;;;7581731;19;20059;-70
2022/10/31 00:49:45;;;;;;;19.42;7.47;;;10.70;99.90;;;;;;7584019;19;20044;-71
2022/10/31 00:52:17;;;;;;;21.58;8.23;;;10.70;99.90;;;;;;7603988;19;20046;-70
2022/10/31 00:54:49;;;;;;;20.58;8.02;;;10.70;99.90;;;;;;7584088;19;21001;-69
2022/10/31 00:57:21;;;;;;;17.60;7.15;;;10.60;99.90;;;;;;7606738;19;20019;-69
2022/10/31 00:59:53;;;;;;;20.95;8.48;;;10.50;99.90;;;;;;7612806;19;20052;-69
2022/10/31 01:02:25;;;;;;;19.13;8.50;;;10.20;99.90;;;;;;7599354;19;20022;-69
2022/10/31 01:04:57;;;;;;;23.65;7.60;;;10.20;99.90;;;;;;7612291;19;20873;-70
2022/10/31 01:07:29;;;;;;;15.60;7.13;;;10.20;99.90;;;;;;7616660;19;20423;-70
2022/10/31 01:10:02;;;;;;;17.35;7.35;;;10.20;99.90;;;;;;7612164;19;20025;-71
2022/10/31 01:12:43;;;;;;;16.98;7.00;;;10.30;99.90;;;;;;7614114;19;20022;-70
2022/10/31 01:15:19;;;;;;;23.65;7.30;;;10.20;99.90;;;;;;7606770;19;21910;-70
2022/10/31 01:17:51;;;;;;;19.58;7.82;;;10.10;99.90;;;;;;7604536;19;20018;-70
2022/10/31 01:20:23;;;;;;;21.40;7.30;;;10.10;99.90;;;;;;7614366;19;20470;-70
2022/10/31 01:22:55;;;;;;;25.00;7.70;;;10.10;99.90;;;;;;7619164;19;20030;-70
2022/10/31 01:25:28;;;;;;;13.17;7.00;;;10.10;99.90;;;;;;7608241;19;20386;-71
2022/10/31 01:28:00;;;;;;;16.77;7.10;;;10.20;99.90;;;;;;7600211;19;20019;-70
2022/10/31 01:30:33;;;;;;;21.10;6.90;;;10.10;99.90;;;;;;7607848;19;20014;-70
2022/10/31 01:33:05;;;;;;;15.18;7.13;;;10.10;99.90;;;;;;7603803;19;20666;-71
2022/10/31 01:35:37;;;;;;;13.48;6.10;;;10.10;99.90;;;;;;7609473;19;20592;-70
2022/10/31 01:38:09;;;;;;;13.48;5.97;;;10.20;99.90;;;;;;7616996;19;21205;-70
2022/10/31 01:40:41;;;;;;;18.45;6.00;;;10.30;99.90;;;;;;7595796;19;20014;-70
2022/10/31 01:43:14;;;;;;;15.85;6.13;;;10.40;99.90;;;;;;7613689;19;20018;-70
2022/10/31 01:45:53;;;;;;;17.65;6.45;;;10.40;99.90;;;;;;7603130;19;20018;-70
2022/10/31 01:48:27;;;;;;;14.48;5.95;;;10.30;99.90;;;;;;7600120;19;20010;-70
2022/10/31 01:51:00;;;;;;;20.40;6.25;;;10.20;99.90;;;;;;7604076;19;20014;-70
2022/10/31 01:53:32;;;;;;;15.93;5.80;;;10.20;99.90;;;;;;7601786;19;20502;-70
2022/10/31 01:56:05;;;;;;;15.32;7.22;;;10.10;99.90;;;;;;7612441;19;20010;-70
2022/10/31 01:58:38;;;;;;;21.92;6.90;;;10.10;99.90;;;;;;7614043;19;20078;-70
2022/10/31 02:01:12;;;;;;;17.90;6.32;;;10.00;99.90;;;;;;7596660;19;20019;-70
2022/10/31 02:03:47;;;;;;;23.50;7.25;;;10.00;99.90;;;;;;7597664;19;20623;-70
2022/10/31 02:06:31;;;;;;;16.55;6.40;;;10.00;99.90;;;;;;7611788;19;20061;-70
2022/10/31 02:09:05;;;;;;;19.27;5.88;;;10.10;99.90;;;;;;7607242;19;20014;-71
2022/10/31 02:11:37;;;;;;;17.80;6.03;;;10.20;99.90;;;;;;7617342;19;20018;-71
2022/10/31 02:14:10;;;;;;;13.48;5.85;;;10.30;99.90;;;;;;7597188;19;20664;-71
2022/10/31 02:16:42;;;;;;;15.75;6.53;;;10.10;99.90;;;;;;7611755;19;20014;-71
2022/10/31 02:19:21;;;;;;;11.60;5.57;;;10.00;99.90;;;;;;7611184;19;20010;-71
2022/10/31 02:22:05;;;;;;;15.18;5.82;;;10.00;99.90;;;;;;7617206;19;20014;-71
2022/10/31 02:24:57;;;;;;;15.93;6.32;;;10.00;99.90;;;;;;7604613;19;20037;-71
2022/10/31 02:27:35;;;;;;;12.38;5.75;;;9.90;99.90;;;;;;7607068;19;20022;-71
2022/10/31 02:30:14;;;;;;;16.60;5.82;;;9.80;99.90;;;;;;7605528;19;20018;-71
2022/10/31 02:33:34;;;;;;;22.95;6.50;;;9.80;99.90;;;;;;7611993;19;20617;-70
2022/10/31 02:36:21;;;;;;;15.63;6.03;;;9.90;99.90;;;;;;7584923;19;21008;-71
2022/10/31 02:39:24;;;;;;;13.68;5.35;;;9.90;99.90;;;;;;7608372;19;20052;-71
2022/10/31 02:42:12;;;;;;;16.48;6.43;;;9.80;99.90;;;;;;7602053;19;20817;-71
2022/10/31 02:44:49;;;;;;;12.02;5.10;;;9.90;99.90;;;;;;7594366;19;20021;-70
2022/10/31 02:47:32;;;;;;;11.07;5.75;;;9.80;99.90;;;;;;7592158;19;26166;-71
2022/10/31 02:50:28;;;;;;;15.00;5.88;;;9.80;99.90;;;;;;7602871;19;20014;-71
2022/10/31 02:53:01;;;;;;;16.95;5.75;;;9.70;99.90;;;;;;7604573;19;20018;-70
2022/10/31 02:55:34;;;;;;;15.70;5.88;;;9.70;99.90;;;;;;7606592;19;20014;-71
2022/10/31 02:58:17;;;;;;;16.67;5.43;;;9.70;99.90;;;;;;7593936;19;20777;-71
2022/10/31 03:00:59;;;;;;;14.85;6.55;;;9.60;99.90;;;;;;7589854;19;20115;-70
2022/10/31 03:03:43;;;;;;;11.55;5.88;;;9.60;99.90;;;;;;7601464;19;20022;-71
2022/10/31 03:06:24;;;;;;;13.25;5.70;;;9.60;99.90;;;;;;7604519;19;20025;-70
2022/10/31 03:09:02;;;;;;;13.50;5.75;;;9.70;99.90;;;;;;7597818;19;20010;-71
2022/10/31 03:11:47;;;;;;;15.57;5.43;;;9.60;99.90;;;;;;7595949;19;20030;-70
2022/10/31 03:14:35;;;;;;;14.40;5.88;;;9.60;99.90;;;;;;7602169;19;20346;-71
2022/10/31 03:17:15;;;;;;;12.63;5.57;;;9.60;99.90;;;;;;7596765;19;20734;-69
2022/10/31 03:19:53;;;;;;;15.88;5.30;;;9.50;99.90;;;;;;7603903;19;20082;-70
2022/10/31 03:22:29;;;;;;;16.83;5.75;;;9.50;99.90;;;;;;7610776;19;20018;-71
2022/10/31 03:25:05;;;;;;;18.33;5.95;;;9.50;99.90;;;;;;7599554;19;20018;-71
2022/10/31 03:27:40;;;;;;;14.52;6.07;;;9.40;99.90;;;;;;7603210;19;20025;-70
2022/10/31 03:30:13;;;;;;;18.88;5.47;;;9.60;99.90;;;;;;7590612;19;20038;-70
2022/10/31 03:33:09;;;;;;;18.13;5.75;;;9.70;99.90;;;;;;7597790;19;20352;-71
2022/10/31 03:35:46;;;;;;;13.63;4.88;;;9.60;99.90;;;;;;7605323;19;20021;-71
2022/10/31 03:38:19;;;;;;;13.77;6.10;;;9.50;99.90;;;;;;7599873;19;20021;-71
2022/10/31 03:40:54;;;;;;;13.52;6.00;;;9.50;99.90;;;;;;7602017;19;20010;-71
2022/10/31 03:43:32;;;;;;;12.90;5.63;;;9.50;99.90;;;;;;7611150;19;20018;-70
2022/10/31 03:46:05;;;;;;;18.88;5.72;;;9.60;99.90;;;;;;7589031;19;20709;-71
2022/10/31 03:48:38;;;;;;;19.25;6.55;;;9.50;99.90;;;;;;7594705;19;20021;-71
2022/10/31 03:51:30;;;;;;;10.73;6.00;;;9.40;99.90;;;;;;7590286;19;20113;-71
2022/10/31 03:54:17;;;;;;;15.70;6.10;;;9.30;99.90;;;;;;7599310;19;20026;-71
2022/10/31 03:56:57;;;;;;;20.55;6.38;;;9.20;99.90;;;;;;7607805;19;20143;-71
2022/10/31 03:59:35;;;;;;;13.38;5.25;;;9.30;99.90;;;;;;7606808;19;20015;-71
2022/10/31 04:02:13;;;;;;;10.27;5.32;;;9.30;99.90;;;;;;7586229;19;20015;-71
2022/10/31 04:04:48;;;;;;;15.32;6.20;;;9.30;99.90;;;;;;7601972;19;20545;-71
2022/10/31 04:07:23;;;;;;;15.18;5.40;;;9.20;99.90;;;;;;7591211;19;20022;-70
2022/10/31 04:09:58;;;;;;;14.35;5.63;;;9.20;99.90;;;;;;7599314;19;20017;-70
2022/10/31 04:12:32;;;;;;;17.15;5.65;;;9.30;99.90;;;;;;7609404;19;20014;-70
2022/10/31 04:15:15;;;;;;;12.90;5.53;;;9.40;99.90;;;;;;7590970;19;20019;-70
2022/10/31 04:17:50;;;;;;;11.43;5.45;;;9.30;99.90;;;;;;7605120;19;20010;-70
2022/10/31 04:20:33;;;;;;;18.30;4.80;;;9.30;99.90;;;;;;7599879;19;20017;-70
2022/10/31 04:23:19;;;;;;;12.07;5.93;;;9.20;99.90;;;;;;7608503;19;20010;-70
2022/10/31 04:25:53;;;;;;;12.18;5.30;;;9.20;99.90;;;;;;7584277;19;20037;-70
2022/10/31 04:28:25;;;;;;;12.18;5.95;;;9.10;99.90;;;;;;7583812;19;20022;-70
2022/10/31 04:30:57;;;;;;;8.60;5.03;;;9.00;99.90;;;;;;7583888;19;20010;-69
2022/10/31 04:33:29;;;;;;;14.73;5.32;;;9.10;99.90;;;;;;7608384;19;20043;-69
2022/10/31 04:36:01;;;;;;;12.60;5.53;;;9.10;99.90;;;;;;7596807;19;20119;-70
2022/10/31 04:38:34;;;;;;;12.98;4.72;;;9.00;99.90;;;;;;7589375;19;20022;-69
2022/10/31 04:41:11;;;;;;;11.15;5.22;;;9.00;99.90;;;;;;7583244;19;20989;-69
2022/10/31 04:43:54;;;;;;;10.20;5.35;;;9.00;99.90;;;;;;7597060;19;20006;-69
2022/10/31 04:46:26;;;;;;;11.95;5.38;;;8.90;99.90;;;;;;7599985;19;20024;-69
2022/10/31 04:49:00;;;;;;;;;;;8.90;99.90;;;;;;7608264;19;20344;-69
2022/10/31 04:51:32;;;;;;;14.13;5.43;;;8.80;99.90;;;;;;7607435;19;19921;-69
2022/10/31 04:54:05;;;;;;;18.52;5.30;;;8.80;99.90;;;;;;7595881;19;20021;-69
2022/10/31 04:56:56;;;;;;;14.10;5.88;;;8.70;99.90;;;;;;7606470;19;20062;-69
2022/10/31 04:59:29;;;;;;;10.80;5.25;;;8.60;99.90;;;;;;7596758;19;20018;-69
2022/10/31 05:02:02;;;;;;;18.33;6.07;;;8.60;99.90;;;;;;7586822;19;20044;-70
2022/10/31 05:04:48;;;;;;;13.10;6.30;;;8.60;99.90;;;;;;7606536;19;20010;-70
2022/10/31 05:07:22;;;;;;;15.57;6.28;;;8.80;99.90;;;;;;7608949;19;20019;-70
2022/10/31 05:09:54;;;;;;;12.77;5.32;;;8.80;99.90;;;;;;7594427;19;20038;-71
2022/10/31 05:12:26;;;;;;;12.20;5.20;;;8.80;99.90;;;;;;7583600;19;20020;-70
2022/10/31 05:15:23;;;;;;;16.20;4.78;;;8.70;99.90;;;;;;7598854;19;20014;-70
2022/10/31 05:18:13;;;;;;;13.10;6.22;;;8.80;99.90;;;;;;7607960;19;20014;-70
2022/10/31 05:21:14;;;;;;;15.27;5.55;;;8.70;99.90;;;;;;7600856;19;20018;-70
2022/10/31 05:23:53;;;;;;;16.08;5.53;;;8.60;99.90;;;;;;7599921;19;20022;-70
2022/10/31 05:26:28;;;;;;;19.70;5.97;;;8.70;99.90;;;;;;7596996;19;20114;-70
2022/10/31 05:29:00;;;;;;;17.08;5.57;;;8.60;99.90;;;;;;7596752;19;20019;-70
2022/10/31 05:31:33;;;;;;;13.83;6.23;;;8.60;99.90;;;;;;7567348;19;20948;-70
2022/10/31 05:34:06;;;;;;;14.07;6.40;;;8.50;99.90;;;;;;7566913;19;20082;-70
2022/10/31 05:36:57;;;;;;;13.02;6.43;;;8.40;99.90;;;;;;7587876;19;20110;-69
2022/10/31 05:39:29;;;;;;;17.48;6.75;;;8.50;99.90;;;;;;7584511;19;20166;-70
2022/10/31 05:42:05;;;;;;;14.48;6.53;;;8.50;99.90;;;;;;7580553;19;20026;-70
2022/10/31 05:44:37;;;;;;;19.40;7.45;;;8.60;99.90;;;;;;7606712;19;20018;-70
2022/10/31 05:47:37;;;;;;;12.68;6.43;;;8.60;99.90;;;;;;7603660;19;20014;-70
2022/10/31 05:50:44;;;;;;;13.25;6.75;;;8.50;99.90;;;;;;7584158;19;20022;-69
2022/10/31 05:53:16;;;;;;;21.15;6.68;;;8.50;99.90;;;;;;7597002;19;21241;-70
2022/10/31 05:55:49;;;;;;;18.47;7.10;;;8.50;99.90;;;;;;7592102;19;20106;-70
2022/10/31 05:58:24;;;;;;;13.45;6.20;;;8.40;99.90;;;;;;7574324;19;20387;-70
2022/10/31 06:01:09;;;;;;;12.95;6.80;;;8.40;99.90;;;;;;7585413;19;20015;-70
2022/10/31 06:03:42;;;;;;;12.98;6.13;;;8.40;99.90;;;;;;7597192;19;20018;-70
2022/10/31 06:06:14;;;;;;;13.65;6.43;;;8.30;99.90;;;;;;7594007;19;20021;-70
2022/10/31 06:08:46;;;;;;;12.70;6.18;;;8.30;99.90;;;;;;7609294;19;20018;-70
2022/10/31 06:11:23;;;;;;;11.45;5.20;;;8.20;99.90;;;;;;7593943;19;20014;-70
2022/10/31 06:14:04;;;;;;;11.43;5.32;;;8.40;99.90;;;;;;7611402;19;20014;-70
2022/10/31 06:16:58;;;;;;;15.20;6.35;;;8.60;99.90;;;;;;7598545;19;20102;-70
2022/10/31 06:19:49;;;;;;;20.08;5.40;;;8.60;99.90;;;;;;7598693;19;20010;-69
2022/10/31 06:22:50;;;;;;;15.65;6.20;;;8.60;99.90;;;;;;7589912;19;20017;-70
2022/10/31 06:25:22;;;;;;;12.48;6.75;;;8.50;99.90;;;;;;7568273;19;20017;-70
2022/10/31 06:27:54;;;;;;;15.20;7.25;;;8.40;99.90;;;;;;7592441;19;20113;-70
2022/10/31 06:30:31;;;;;;;15.55;5.90;;;8.40;99.90;;;;;;7581245;19;20106;-70
2022/10/31 06:33:06;;;;;;;13.10;5.88;;;8.60;99.90;;;;;;7602883;19;20019;-69
2022/10/31 06:35:46;;;;;;;15.65;6.57;;;8.70;99.90;;;;;;7600176;19;20026;-70
2022/10/31 06:38:20;;;;;;;18.45;5.85;;;8.70;99.90;;;;;;7600507;19;20024;-70
2022/10/31 06:40:53;;;;;;;13.75;6.85;;;8.70;99.90;;;;;;7593535;19;20014;-70
2022/10/31 06:43:26;;;;;;;15.57;5.80;;;8.80;99.90;;;;;;7578656;19;20969;-69
2022/10/31 06:46:21;;;;;;;19.70;6.78;;;8.90;99.90;;;;;;7581402;19;20018;-70
2022/10/31 06:49:18;;;;;;;18.55;6.55;;;9.00;99.90;;;;;;7584030;19;20784;-70
2022/10/31 06:51:54;;;;;;;16.50;6.35;;;9.10;99.90;;;;;;7588360;19;20015;-70
2022/10/31 06:54:27;;;;;;;19.20;6.43;;;9.10;99.90;;;;;;7583749;19;20014;-70
2022/10/31 06:56:59;;;;;;;14.30;6.13;;;9.00;99.90;;;;;;7582873;19;20052;-70
2022/10/31 06:59:32;;;;;;;20.73;7.65;;;9.10;99.90;;;;;;7596715;19;20029;-70
2022/10/31 07:02:11;;;;;;;21.05;6.78;;;9.30;99.90;;;;;;7584399;19;20015;-71
2022/10/31 07:04:45;;;;;;;13.27;5.85;;;9.20;99.90;;;;;;7582568;19;20081;-70
2022/10/31 07:07:21;;;;;;;;;;;9.20;99.90;;;;;;7589822;19;20018;-70
2022/10/31 07:09:54;;;;;;;16.38;6.47;;;9.20;99.90;;;;;;7533163;19;19923;-70
2022/10/31 07:12:42;;;;;;;16.65;6.10;;;9.20;99.90;;;;;;7525269;19;20077;-70
2022/10/31 07:15:14;;;;;;;14.15;6.10;;;9.30;99.90;;;;;;7570040;19;20510;-70
2022/10/31 07:17:47;;;;;;;18.55;7.20;;;9.30;99.90;;;;;;7567845;19;20022;-70
2022/10/31 07:20:20;;;;;;;11.95;5.78;;;9.40;99.90;;;;;;7568256;19;20632;-70
2022/10/31 07:22:52;;;;;;;13.33;5.90;;;9.40;99.90;;;;;;7576618;19;20097;-70
2022/10/31 07:25:24;;;;;;;11.43;5.75;;;9.50;99.90;;;;;;7551144;19;20018;-71
2022/10/31 07:28:16;;;;;;;19.27;7.50;;;9.80;99.90;;;;;;7540696;19;20018;-70
2022/10/31 07:30:54;;;;;;;11.27;5.13;;;9.90;99.90;;;;;;7564307;19;20011;-69
2022/10/31 07:33:26;;;;;;;18.67;6.32;;;10.10;99.90;;;;;;7582715;19;20014;-70
2022/10/31 07:36:17;;;;;;;16.33;5.82;;;10.30;99.90;;;;;;7547279;19;20022;-70
2022/10/31 07:38:52;;;;;;;20.10;5.50;;;10.40;99.90;;;;;;7564827;19;21367;-70
2022/10/31 07:41:24;;;;;;;12.90;5.43;;;10.50;99.90;;;;;;7595563;19;20019;-71
2022/10/31 07:43:57;;;;;;;14.70;5.47;;;10.60;99.90;;;;;;7576239;19;20014;-71
2022/10/31 07:46:47;;;;;;;13.23;5.22;;;10.80;99.90;;;;;;7572463;19;20015;-70
2022/10/31 07:49:28;;;;;;;13.80;5.47;;;11.00;99.90;;;;;;7592672;19;20022;-70
2022/10/31 07:52:19;;;;;;;17.95;5.32;;;11.10;99.90;;;;;;7582070;19;20856;-70
2022/10/31 07:55:10;;;;;;;17.92;5.57;;;11.20;99.90;;;;;;7587342;19;20006;-70
2022/10/31 07:57:42;;;;;;;15.75;5.70;;;11.20;99.90;;;;;;7589055;19;20022;-70
2022/10/31 08:00:15;;;;;;;15.17;5.90;;;11.40;99.90;;;;;;7579240;19;20018;-69
2022/10/31 08:02:47;;;;;;;22.63;5.50;;;11.40;99.90;;;;;;7578250;19;20022;-69
2022/10/31 08:05:39;;;;;;;13.13;5.50;;;11.50;99.90;;;;;;7573315;19;20002;-70
2022/10/31 08:08:46;;;;;;;10.30;5.22;;;11.60;99.90;;;;;;7569312;19;20082;-69
2022/10/31 08:11:19;;;;;;;21.13;8.35;;;11.70;99.90;;;;;;7597067;19;20003;-70
2022/10/31 08:13:52;;;;;;;22.38;7.00;;;11.80;99.90;;;;;;7575925;19;20026;-69
2022/10/31 08:16:24;;;;;;;16.20;6.18;;;11.80;99.90;;;;;;7541585;19;20022;-69
2022/10/31 08:19:04;;;;;;;12.68;5.85;;;12.00;99.90;;;;;;7560967;19;20018;-69
2022/10/31 08:21:41;;;;;;;14.05;6.07;;;12.10;99.90;;;;;;7565145;19;20017;-68
2022/10/31 08:24:13;;;;;;;13.70;5.82;;;12.20;99.90;;;;;;7583514;19;20003;-68
2022/10/31 08:26:46;;;;;;;23.88;6.70;;;12.30;99.90;;;;;;7575181;19;21135;-69
2022/10/31 08:29:19;;;;;;;19.00;5.85;;;12.50;99.90;;;;;;7577738;19;20014;-69
2022/10/31 08:31:51;;;;;;;19.33;6.17;;;12.60;99.90;;;;;;7546329;19;20010;-70
2022/10/31 08:34:42;;;;;;;16.13;6.72;;;12.80;99.90;;;;;;7578548;19;20587;-69
2022/10/31 08:37:38;;;;;;;24.35;7.95;;;13.00;99.90;;;;;;7582423;19;20053;-69
2022/10/31 08:40:12;;;;;;;30.70;9.02;;;13.20;99.90;;;;;;7557778;19;21700;-68
2022/10/31 08:42:45;;;;;;;21.92;7.70;;;13.20;99.90;;;;;;7578306;19;20029;-69
2022/10/31 08:45:17;;;;;;;21.95;7.57;;;13.30;99.90;;;;;;7585193;19;20724;-69
2022/10/31 08:47:49;;;;;;;28.52;8.90;;;13.40;99.90;;;;;;7555149;19;20097;-70
2022/10/31 08:50:21;;;;;;;21.60;8.10;;;13.50;99.90;;;;;;7553608;19;20014;-67
2022/10/31 08:52:59;;;;;;;25.90;8.70;;;13.60;99.90;;;;;;7569598;19;20027;-70
2022/10/31 08:55:38;;;;;;;23.35;8.90;;;13.80;99.90;;;;;;7567031;19;20011;-70
2022/10/31 08:58:26;;;;;;;15.23;8.20;;;13.90;99.90;;;;;;7573788;19;20007;-70
2022/10/31 09:01:03;;;;;;;22.67;8.43;;;14.00;99.90;;;;;;7574206;19;20015;-69
2022/10/31 09:03:35;;;;;;;21.45;9.27;;;14.10;99.90;;;;;;7589874;19;20396;-70
2022/10/31 09:06:09;;;;;;;26.15;8.82;;;14.20;99.90;;;;;;7573276;19;20078;-69
2022/10/31 09:08:41;;;;;;;17.33;8.52;;;14.30;99.90;;;;;;7571832;19;20612;-69
2022/10/31 09:11:15;;;;;;;14.95;8.15;;;14.40;99.90;;;;;;7565609;19;20043;-69
2022/10/31 09:14:06;;;;;;;20.70;7.53;;;14.50;99.90;;;;;;7564421;19;20694;-69
2022/10/31 09:16:58;;;;;;;19.27;6.88;;;14.60;99.90;;;;;;7573966;19;20014;-70
2022/10/31 09:19:44;;;;;;;15.60;6.53;;;14.70;99.90;;;;;;7570009;19;20544;-70
2022/10/31 09:22:16;;;;;;;17.55;6.65;;;14.80;99.90;;;;;;7571282;19;21492;-69
2022/10/31 09:24:48;;;;;;;16.95;6.50;;;14.90;99.90;;;;;;7582112;19;20013;-69
2022/10/31 09:27:20;;;;;;;15.05;5.65;;;15.00;99.90;;;;;;7535620;19;20017;-70
2022/10/31 09:29:53;;;;;;;15.85;6.60;;;15.00;99.90;;;;;;7599209;19;20022;-69
2022/10/31 09:32:25;;;;;;;20.60;7.15;;;15.10;99.90;;;;;;7582032;19;20015;-69
2022/10/31 09:34:57;;;;;;;17.85;7.15;;;15.20;99.90;;;;;;7578316;19;20045;-69
2022/10/31 09:37:29;;;;;;;19.13;7.13;;;15.20;99.90;;;;;;7576987;19;20074;-70
2022/10/31 09:40:02;;;;;;;21.63;5.63;;;15.30;99.90;;;;;;7594235;19;20046;-70
2022/10/31 09:42:45;;;;;;;16.60;5.13;;;15.50;99.90;;;;;;7594891;19;20015;-70
2022/10/31 09:45:34;;;;;;;14.52;5.03;;;15.60;99.90;;;;;;7579830;19;20014;-70
2022/10/31 09:48:30;;;;;;;9.40;5.03;;;15.80;99.90;;;;;;7575675;19;20010;-70
2022/10/31 09:51:30;;;;;;;13.05;4.28;;;16.00;99.90;;;;;;7581286;19;21217;-70
2022/10/31 09:54:50;;;;;;;15.60;3.95;;;16.10;99.90;;;;;;7580069;19;20363;-70
2022/10/31 09:57:29;;;;;;;15.38;4.70;;;16.40;99.90;;;;;;7581441;19;20021;-70
2022/10/31 10:00:05;;;;;;;18.00;4.10;;;16.50;99.30;;;;;;7575507;19;20006;-70
2022/10/31 10:02:47;;;;;;;16.43;3.97;;;16.60;99.70;;;;;;7605428;19;20071;-70
2022/10/31 10:05:34;;;;;;;12.85;3.95;;;16.80;96.60;;;;;;7605642;19;20010;-70
2022/10/31 10:08:16;;;;;;;11.57;4.03;;;17.10;96.60;;;;;;7575407;19;20017;-70
2022/10/31 10:11:55;;;;;;;12.70;4.28;;;17.20;95.50;;;;;;7588556;19;20014;-70
2022/10/31 10:14:45;;;;;;;15.63;4.32;;;17.40;93.10;;;;;;7594255;19;20684;-70
2022/10/31 10:17:31;;;;;;;16.38;4.88;;;17.30;92.10;;;;;;7605974;19;20615;-69
2022/10/31 10:20:44;;;;;;;17.17;4.68;;;17.30;92.00;;;;;;7601492;19;20025;-69
2022/10/31 10:23:31;;;;;;;15.77;4.25;;;17.40;91.30;;;;;;7603890;19;21187;-70
2022/10/31 10:26:12;;;;;;;18.38;5.00;;;17.40;91.50;;;;;;7587416;19;21007;-70
2022/10/31 10:28:56;;;;;;;7.07;3.95;;;17.50;91.60;;;;;;7560238;19;20029;-70
2022/10/31 10:31:40;;;;;;;12.05;4.55;;;17.50;90.70;;;;;;7571703;19;21026;-68
2022/10/31 10:34:31;;;;;;;10.88;4.60;;;17.50;90.50;;;;;;7578469;19;20018;-69
2022/10/31 10:37:17;;;;;;;17.67;4.45;;;17.60;90.40;;;;;;7547402;19;20014;-69
2022/10/31 10:39:54;;;;;;;19.88;4.05;;;17.70;91.00;;;;;;7585912;19;20014;-69
2022/10/31 10:48:16;;;;;;;13.88;4.50;;;17.80;90.20;;;;;;7591314;19;20486;-69
2022/10/31 10:50:51;;;;;;;15.18;4.40;;;17.80;90.10;;;;;;7598956;19;20019;-69
2022/10/31 10:53:32;;;;;;;14.95;4.07;;;17.70;88.40;;;;;;7599545;19;20018;-70
2022/10/31 10:56:13;;;;;;;12.00;4.55;;;17.80;89.40;;;;;;7598347;19;20022;-69
2022/10/31 10:58:45;;;;;;;10.40;4.80;;;17.80;88.50;;;;;;7593003;19;20057;-69
2022/10/31 11:01:17;;;;;;;16.35;4.40;;;17.80;89.90;;;;;;7589354;19;20015;-69
2022/10/31 11:03:50;;;;;;;17.08;4.57;;;17.80;88.80;;;;;;7581713;19;20014;-69
2022/10/31 11:06:27;;;;;;;12.67;4.20;;;17.80;88.50;;;;;;7570890;19;20512;-68
2022/10/31 11:09:10;;;;;;;14.20;4.43;;;17.80;89.60;;;;;;7588496;19;20864;-70
2022/10/31 11:11:42;;;;;;;10.53;4.17;;;17.80;89.90;;;;;;7583594;19;20023;-68
2022/10/31 11:14:17;;;;;;;19.10;5.50;;;17.90;88.80;;;;;;7590407;19;20082;-70
2022/10/31 11:17:13;;;;;;;13.75;5.10;;;17.90;88.80;;;;;;7597376;19;20030;-69
2022/10/31 11:19:45;;;;;;;12.45;4.43;;;18.00;88.30;;;;;;7593411;19;21491;-69
2022/10/31 11:22:18;;;;;;;18.40;5.35;;;18.10;89.00;;;;;;7587192;19;20045;-69
2022/10/31 11:24:50;;;;;;;11.23;4.57;;;18.10;87.90;;;;;;7582200;19;20109;-69
2022/10/31 11:27:25;;;;;;;21.77;4.80;;;18.10;88.90;;;;;;7545572;19;20064;-69
2022/10/31 11:30:05;;;;;;;17.48;4.85;;;18.10;89.20;;;;;;7540471;19;20015;-71
2022/10/31 11:32:47;;;;;;;18.73;5.25;;;18.20;88.70;;;;;;7588017;19;20082;-71
2022/10/31 11:35:22;;;;;;;21.13;4.38;;;18.40;90.00;;;;;;7564394;19;20022;-70
2022/10/31 11:37:58;;;;;;;13.65;4.50;;;18.70;88.00;;;;;;7581512;19;20052;-70
2022/10/31 11:40:31;;;;;;;14.45;4.55;;;18.80;87.40;;;;;;7560951;19;20010;-70
2022/10/31 11:43:03;;;;;;;14.07;5.47;;;18.80;85.50;;;;;;7585218;19;20729;-70
2022/10/31 11:45:36;;;;;;;14.70;5.30;;;19.00;85.80;;;;;;7581554;19;20636;-69
2022/10/31 11:48:21;;;;;;;22.02;5.35;;;19.20;84.80;;;;;;7588022;19;20015;-69
2022/10/31 11:50:58;;;;;;;16.23;5.13;;;19.70;83.70;;;;;;7556913;19;20029;-70
2022/10/31 11:53:33;;;;;;;17.13;4.85;;;20.00;81.70;;;;;;7590512;19;20011;-69
2022/10/31 11:56:13;;;;;;;15.00;4.43;;;20.00;81.30;;;;;;7570982;19;20018;-69
2022/10/31 11:59:05;;;;;;;15.32;4.55;;;19.80;82.00;;;;;;7581347;19;20013;-70
2022/10/31 12:01:40;;;;;;;17.77;5.38;;;19.80;81.70;;;;;;7544988;19;20090;-70
2022/10/31 12:04:19;;;;;;;20.65;5.97;;;19.60;82.40;;;;;;7563399;19;20500;-70
2022/10/31 12:06:52;;;;;;;11.52;5.38;;;19.60;82.90;;;;;;7578102;19;20164;-70
2022/10/31 12:09:30;;;;;;;16.15;4.43;;;19.80;82.40;;;;;;7585130;19;20036;-70
2022/10/31 12:12:08;;;;;;;12.93;4.35;;;20.00;82.40;;;;;;7582256;19;21288;-70
2022/10/31 12:14:46;;;;;;;10.57;4.18;;;20.00;81.90;;;;;;7591302;19;20109;-69
2022/10/31 12:17:24;;;;;;;15.32;4.47;;;19.80;80.80;;;;;;7571875;19;20014;-69
2022/10/31 12:20:00;;;;;;;15.25;4.97;;;19.70;82.60;;;;;;7566045;19;20018;-70
2022/10/31 12:22:56;;;;;;;15.18;5.57;;;19.70;83.10;;;;;;7548313;19;20045;-70
2022/10/31 12:25:46;;;;;;;11.10;4.70;;;19.60;83.40;;;;;;7560759;19;20050;-69
2022/10/31 12:28:24;;;;;;;16.35;4.72;;;19.50;84.30;;;;;;7587618;19;20103;-69
2022/10/31 12:31:18;;;;;;;16.20;4.32;;;19.50;85.20;;;;;;7585861;19;20926;-70
2022/10/31 12:34:29;;;;;;;13.32;5.05;;;19.50;84.30;;;;;;7583763;19;20972;-69
2022/10/31 12:37:16;;;;;;;14.48;4.80;;;19.40;83.90;;;;;;7599869;19;20011;-69
2022/10/31 12:40:19;;;;;;;18.77;6.35;;;19.40;83.60;;;;;;7566436;19;20055;-70
2022/10/31 12:43:09;;;;;;;17.75;5.35;;;19.30;84.00;;;;;;7579935;19;20677;-69
2022/10/31 12:45:54;;;;;;;15.73;5.18;;;19.20;85.00;;;;;;7565743;19;20030;-69
2022/10/31 12:48:56;;;;;;;12.00;4.90;;;19.20;86.00;;;;;;7594620;19;20007;-69
2022/10/31 12:51:38;;;;;;;20.08;5.97;;;19.20;85.70;;;;;;7606450;19;20014;-69
2022/10/31 12:54:36;;;;;;;20.55;5.13;;;19.20;86.80;;;;;;7617901;19;20038;-70
2022/10/31 12:57:11;;;;;;;19.63;5.20;;;19.20;86.80;;;;;;7584072;19;20011;-70
2022/10/31 12:59:48;;;;;;;15.50;5.50;;;19.20;87.00;;;;;;7592317;19;20576;-69
2022/10/31 13:02:26;;;;;;;18.27;5.25;;;19.20;87.20;;;;;;7596983;19;20365;-69
2022/10/31 13:05:31;;;;;;;17.35;5.22;;;19.30;87.10;;;;;;7592761;19;20989;-70
2022/10/31 13:08:22;;;;;;;16.83;5.72;;;19.40;87.30;;;;;;7614165;19;20010;-69
2022/10/31 13:11:16;;;;;;;23.98;5.97;;;19.50;87.30;;;;;;7597936;19;20903;-70
2022/10/31 13:14:10;;;;;;;15.15;5.60;;;19.50;88.00;;;;;;7607714;19;20356;-70
2022/10/31 13:16:47;;;;;;;16.23;5.75;;;19.60;86.80;;;;;;7601008;19;20018;-70
2022/10/31 13:19:29;;;;;;;18.90;5.28;;;19.70;86.90;;;;;;7601750;19;20034;-70
2022/10/31 13:22:20;;;;;;;18.38;6.05;;;19.70;86.90;;;;;;7606404;19;20038;-70
2022/10/31 13:25:15;;;;;;;25.83;5.90;;;19.50;87.90;;;;;;7611154;19;20792;-70
2022/10/31 13:28:00;;;;;;;19.77;5.15;;;19.50;88.00;;;;;;7611386;19;20094;-69
2022/10/31 13:30:37;;;;;;;23.63;5.25;;;19.60;88.20;;;;;;7585153;19;20126;-70
2022/10/31 13:33:16;;;;;;;16.88;5.50;;;19.60;88.40;;;;;;7590232;19;20015;-69
2022/10/31 13:36:03;;;;;;;13.18;5.43;;;19.50;89.60;;;;;;7603578;19;20014;-70
2022/10/31 13:38:59;;;;;;;12.40;5.80;;;19.50;88.70;;;;;;7611724;19;20014;-69
2022/10/31 13:41:50;;;;;;;14.57;6.05;;;19.50;88.40;;;;;;7604506;19;20030;-70
2022/10/31 13:44:30;;;;;;;13.77;5.53;;;19.50;89.40;;;;;;7588187;19;20592;-69
2022/10/31 13:47:38;;;;;;;12.70;5.55;;;19.50;89.70;;;;;;7598539;19;20014;-70
2022/10/31 13:50:25;;;;;;;22.83;6.70;;;19.40;89.90;;;;;;7615467;19;20023;-71